Time;durP1;ratioP1;P1;durP2;ratioP2;P2;SDS_P1;SDS_P2;PMS_P1;PMS_P2;Temp;Humidity;BMP_temperature;BMP_pressure;BME280_temperature;BME280_humidity;BME280_pressure;Samples;Min_cycle;Max_cycle;Signal;HPM_P1;HPM_P2
2021/04/25 00:01:53;;;;;;;;;6.50;6.50;;;;;;;;3548155;39;113932;-74
2021/04/25 00:04:19;;;;;;;;;7.00;6.50;;;;;;;;3549477;39;111872;-75
2021/04/25 00:06:46;;;;;;;;;6.00;6.00;;;;;;;;3549242;39;113440;-75
2021/04/25 00:09:12;;;;;;;;;7.25;6.25;;;;;;;;3551151;39;114175;-75
2021/04/25 00:11:38;;;;;;;;;8.50;6.75;;;;;;;;3549729;39;113168;-75
2021/04/25 00:14:05;;;;;;;;;7.75;6.00;;;;;;;;3547929;39;113775;-75
2021/04/25 00:16:31;;;;;;;;;7.50;7.00;;;;;;;;3550649;39;111781;-75
2021/04/25 00:18:58;;;;;;;;;6.00;6.00;;;;;;;;3549747;39;113516;-75
2021/04/25 00:21:24;;;;;;;;;6.00;6.00;;;;;;;;3548209;39;113796;-74
2021/04/25 00:23:50;;;;;;;;;7.00;6.25;;;;;;;;3547397;39;112268;-74
2021/04/25 00:26:17;;;;;;;;;4.00;3.50;;;;;;;;3549144;39;113261;-76
2021/04/25 00:28:43;;;;;;;;;6.25;6.25;;;;;;;;3551240;39;114055;-74
2021/04/25 00:31:09;;;;;;;;;10.50;6.00;;;;;;;;3549809;39;113468;-73
2021/04/25 00:33:35;;;;;;;;;6.25;4.25;;;;;;;;3547990;39;114752;-73
2021/04/25 00:36:02;;;;;;;;;6.75;6.75;;;;;;;;3550027;39;111977;-74
2021/04/25 00:38:28;;;;;;;;;6.25;5.00;;;;;;;;3548402;39;114059;-73
2021/04/25 00:40:54;;;;;;;;;6.00;6.00;;;;;;;;3549123;39;113566;-74
2021/04/25 00:43:20;;;;;;;;;6.50;5.00;;;;;;;;3548735;39;111828;-73
2021/04/25 00:45:47;;;;;;;;;7.50;6.00;;;;;;;;3549097;39;113288;-74
2021/04/25 00:48:13;;;;;;;;;7.00;7.00;;;;;;;;3548731;39;114005;-74
2021/04/25 00:50:39;;;;;;;;;7.00;6.00;;;;;;;;3551185;39;112055;-74
2021/04/25 00:53:06;;;;;;;;;6.00;6.00;;;;;;;;3549341;39;114165;-75
2021/04/25 00:55:32;;;;;;;;;7.00;5.50;;;;;;;;3548416;39;112178;-75
2021/04/25 00:58:00;;;;;;;;;6.00;6.00;;;;;;;;3550020;39;113467;-74
2021/04/25 01:00:27;;;;;;;;;5.75;5.75;;;;;;;;3547945;39;114227;-74
2021/04/25 01:02:53;;;;;;;;;6.00;6.00;;;;;;;;3549144;39;112398;-74
2021/04/25 01:05:20;;;;;;;;;8.00;7.00;;;;;;;;3549070;39;113244;-74
2021/04/25 01:07:46;;;;;;;;;7.00;7.00;;;;;;;;3548468;39;114246;-74
2021/04/25 01:10:14;;;;;;;;;3.50;3.50;;;;;;;;3549124;39;112848;-74
2021/04/25 01:12:40;;;;;;;;;9.50;5.75;;;;;;;;3550568;39;113351;-75
2021/04/25 01:15:07;;;;;;;;;5.75;5.75;;;;;;;;3549475;39;111804;-74
2021/04/25 01:17:33;;;;;;;;;10.00;7.25;;;;;;;;3548320;39;113333;-74
2021/04/25 01:19:59;;;;;;;;;6.50;6.00;;;;;;;;3549185;39;113775;-74
2021/04/25 01:22:26;;;;;;;;;6.00;6.00;;;;;;;;3548443;39;112092;-74
2021/04/25 01:24:52;;;;;;;;;8.00;5.00;;;;;;;;3549151;39;113449;-75
2021/04/25 01:27:18;;;;;;;;;5.75;5.50;;;;;;;;3548503;39;113917;-76
2021/04/25 01:29:44;;;;;;;;;5.50;5.50;;;;;;;;3548795;39;111917;-75
2021/04/25 01:32:10;;;;;;;;;5.50;5.50;;;;;;;;3549264;39;113248;-74
2021/04/25 01:34:37;;;;;;;;;5.00;5.00;;;;;;;;3548534;39;113062;-74
2021/04/25 01:37:03;;;;;;;;;8.50;6.75;;;;;;;;3549551;39;114244;-75
2021/04/25 01:39:30;;;;;;;;;7.50;5.25;;;;;;;;3547746;39;113743;-74
2021/04/25 01:41:56;;;;;;;;;3.75;3.50;;;;;;;;3549224;39;113921;-75
2021/04/25 01:44:22;;;;;;;;;10.50;7.00;;;;;;;;3548434;39;113438;-75
2021/04/25 01:46:48;;;;;;;;;6.75;6.50;;;;;;;;3548395;39;114383;-75
2021/04/25 01:49:15;;;;;;;;;6.25;6.25;;;;;;;;3548955;39;111950;-75
2021/04/25 01:51:41;;;;;;;;;6.50;6.50;;;;;;;;3548411;39;113681;-75
2021/04/25 01:54:07;;;;;;;;;6.50;6.25;;;;;;;;3549017;39;114736;-75
2021/04/25 01:56:34;;;;;;;;;4.00;3.00;;;;;;;;3548743;39;112535;-75
2021/04/25 01:59:00;;;;;;;;;9.25;7.00;;;;;;;;3547193;39;113718;-76
2021/04/25 02:01:26;;;;;;;;;6.00;5.00;;;;;;;;3549448;39;112018;-76
2021/04/25 02:03:53;;;;;;;;;7.50;6.25;;;;;;;;3548048;39;113577;-74
2021/04/25 02:06:19;;;;;;;;;6.00;5.75;;;;;;;;3548296;39;114005;-76
2021/04/25 02:08:45;;;;;;;;;6.50;6.00;;;;;;;;3548771;39;111883;-76
2021/04/25 02:11:11;;;;;;;;;8.50;5.00;;;;;;;;3546071;39;112298;-76
2021/04/25 02:13:38;;;;;;;;;7.00;5.00;;;;;;;;3548729;39;113872;-74
2021/04/25 02:16:05;;;;;;;;;9.00;6.00;;;;;;;;3547633;39;111990;-75
2021/04/25 02:18:31;;;;;;;;;6.75;6.50;;;;;;;;3549846;39;113344;-74
2021/04/25 02:20:57;;;;;;;;;5.25;5.00;;;;;;;;3548955;39;112070;-74
2021/04/25 02:23:23;;;;;;;;;9.00;6.00;;;;;;;;3548532;39;113249;-72
2021/04/25 02:25:49;;;;;;;;;5.75;5.75;;;;;;;;3549471;39;113968;-74
2021/04/25 02:28:16;;;;;;;;;6.25;6.25;;;;;;;;3549895;39;111801;-71
2021/04/25 02:30:44;;;;;;;;;6.00;5.75;;;;;;;;3549471;39;113226;-71
2021/04/25 02:33:10;;;;;;;;;5.00;5.00;;;;;;;;3549629;39;113900;-71
2021/04/25 02:35:37;;;;;;;;;6.50;6.50;;;;;;;;3549103;39;111785;-74
2021/04/25 02:38:03;;;;;;;;;7.00;6.00;;;;;;;;3552590;39;113327;-74
2021/04/25 02:40:30;;;;;;;;;3.00;2.75;;;;;;;;3550666;39;112043;-73
2021/04/25 02:42:57;;;;;;;;;10.25;7.00;;;;;;;;3552654;39;113477;-76
2021/04/25 02:45:23;;;;;;;;;6.00;5.00;;;;;;;;3550856;39;114716;-73
2021/04/25 02:47:51;;;;;;;;;6.75;5.00;;;;;;;;3550524;39;111842;-75
2021/04/25 02:50:18;;;;;;;;;5.75;5.25;;;;;;;;3552630;39;114379;-74
2021/04/25 02:52:44;;;;;;;;;5.25;5.25;;;;;;;;3550204;39;113613;-74
2021/04/25 02:55:11;;;;;;;;;8.50;6.50;;;;;;;;3554651;39;111789;-74
2021/04/25 02:57:38;;;;;;;;;5.50;5.50;;;;;;;;3550586;39;113290;-74
2021/04/25 03:00:06;;;;;;;;;8.00;6.00;;;;;;;;3554791;39;113862;-74
2021/04/25 03:02:32;;;;;;;;;7.50;7.50;;;;;;;;3550696;39;113438;-74
2021/04/25 03:04:59;;;;;;;;;6.50;6.50;;;;;;;;3550099;39;113978;-75
2021/04/25 03:07:25;;;;;;;;;5.00;5.00;;;;;;;;3550613;39;111888;-75
2021/04/25 03:09:51;;;;;;;;;7.00;6.00;;;;;;;;3550389;39;113593;-77
2021/04/25 03:12:17;;;;;;;;;3.00;3.00;;;;;;;;3550127;39;113803;-77
2021/04/25 03:14:43;;;;;;;;;6.00;6.00;;;;;;;;3552057;39;111980;-75
2021/04/25 03:17:09;;;;;;;;;5.25;5.00;;;;;;;;3549053;39;113404;-75
2021/04/25 03:19:35;;;;;;;;;5.50;5.00;;;;;;;;3550300;39;113793;-76
2021/04/25 03:22:02;;;;;;;;;5.50;5.50;;;;;;;;3551288;39;111896;-75
2021/04/25 03:24:28;;;;;;;;;9.00;5.25;;;;;;;;3549929;39;113920;-75
2021/04/25 03:26:54;;;;;;;;;7.00;5.25;;;;;;;;3548980;39;111876;-76
2021/04/25 03:29:20;;;;;;;;;5.50;5.25;;;;;;;;3549759;39;113233;-75
2021/04/25 03:31:46;;;;;;;;;9.00;7.50;;;;;;;;3549306;39;113953;-75
2021/04/25 03:34:13;;;;;;;;;5.00;5.00;;;;;;;;3548976;39;111838;-76
2021/04/25 03:36:39;;;;;;;;;5.25;5.25;;;;;;;;3550105;39;113969;-75
2021/04/25 03:39:06;;;;;;;;;8.00;7.25;;;;;;;;3546348;39;112781;-74
2021/04/25 03:41:32;;;;;;;;;5.00;5.00;;;;;;;;3548695;39;111931;-75
2021/04/25 03:43:59;;;;;;;;;7.25;6.50;;;;;;;;3552300;39;113694;-76
2021/04/25 03:46:25;;;;;;;;;4.75;4.75;;;;;;;;3549103;39;112514;-76
2021/04/25 03:48:51;;;;;;;;;7.50;7.50;;;;;;;;3549536;39;113757;-76
2021/04/25 03:51:17;;;;;;;;;8.75;7.00;;;;;;;;3549017;39;114198;-77
2021/04/25 03:53:43;;;;;;;;;6.00;5.25;;;;;;;;3549199;39;112414;-76
2021/04/25 03:56:10;;;;;;;;;9.00;7.25;;;;;;;;3550149;39;113445;-76
2021/04/25 03:58:36;;;;;;;;;6.50;5.00;;;;;;;;3550315;39;113756;-76
2021/04/25 04:01:02;;;;;;;;;8.00;8.00;;;;;;;;3550856;39;112073;-77
2021/04/25 04:03:28;;;;;;;;;10.00;6.00;;;;;;;;3550737;39;113658;-76
2021/04/25 04:05:54;;;;;;;;;7.75;5.00;;;;;;;;3554998;39;114096;-76
2021/04/25 04:08:20;;;;;;;;;6.00;6.00;;;;;;;;3552042;39;115518;-77
2021/04/25 04:10:46;;;;;;;;;8.00;5.25;;;;;;;;3553727;39;113907;-76
2021/04/25 04:13:13;;;;;;;;;5.00;5.00;;;;;;;;3551046;39;112222;-75
2021/04/25 04:15:39;;;;;;;;;6.00;5.50;;;;;;;;3550456;39;113193;-74
2021/04/25 04:18:05;;;;;;;;;8.00;5.50;;;;;;;;3549765;39;113976;-74
2021/04/25 04:20:31;;;;;;;;;7.00;5.00;;;;;;;;3550433;39;112209;-75
2021/04/25 04:22:57;;;;;;;;;5.75;4.75;;;;;;;;3550097;39;113626;-75
2021/04/25 04:25:23;;;;;;;;;5.00;5.00;;;;;;;;3551826;39;113881;-74
2021/04/25 04:27:49;;;;;;;;;5.75;5.75;;;;;;;;3554011;39;111788;-74
2021/04/25 04:30:16;;;;;;;;;8.25;6.00;;;;;;;;3552947;39;113517;-74
2021/04/25 04:32:42;;;;;;;;;8.50;5.50;;;;;;;;3552101;39;112331;-76
2021/04/25 04:35:09;;;;;;;;;5.00;4.00;;;;;;;;3549960;39;113236;-77
2021/04/25 04:37:35;;;;;;;;;6.00;6.00;;;;;;;;3550250;39;113764;-76
2021/04/25 04:40:01;;;;;;;;;8.00;8.00;;;;;;;;3552112;39;112151;-75
2021/04/25 04:42:27;;;;;;;;;8.00;5.50;;;;;;;;3552137;39;113077;-76
2021/04/25 04:44:53;;;;;;;;;10.00;8.00;;;;;;;;3549502;39;114485;-75
2021/04/25 04:47:20;;;;;;;;;6.00;5.00;;;;;;;;3551367;39;111738;-75
2021/04/25 04:49:46;;;;;;;;;6.75;5.00;;;;;;;;3548700;39;113016;-75
2021/04/25 04:52:12;;;;;;;;;8.00;5.00;;;;;;;;3549496;39;111964;-75
2021/04/25 04:57:15;;;;;;;;;11.00;10.00;;;;;;;;3570415;39;112313;-75
2021/04/25 04:59:41;;;;;;;;;12.00;12.00;;;;;;;;3566116;39;113860;-76
2021/04/25 05:02:07;;;;;;;;;11.00;10.50;;;;;;;;3569994;39;112379;-74
2021/04/25 05:04:33;;;;;;;;;14.00;10.25;;;;;;;;3569880;39;113143;-76
2021/04/25 05:06:59;;;;;;;;;11.50;9.00;;;;;;;;3569215;39;114353;-75
2021/04/25 05:09:25;;;;;;;;;12.00;11.50;;;;;;;;3569956;39;112167;-75
2021/04/25 05:11:51;;;;;;;;;13.00;11.00;;;;;;;;3569649;39;113224;-74
2021/04/25 05:14:18;;;;;;;;;9.00;9.00;;;;;;;;3567208;39;114123;-75
2021/04/25 05:16:44;;;;;;;;;11.00;11.00;;;;;;;;3572464;39;112244;-76
2021/04/25 05:19:10;;;;;;;;;11.00;9.00;;;;;;;;3566604;39;113924;-77
2021/04/25 05:21:36;;;;;;;;;11.75;11.75;;;;;;;;3566016;39;112219;-77
2021/04/25 05:24:02;;;;;;;;;9.67;9.67;;;;;;;;3567665;39;113207;-76
2021/04/25 05:26:28;;;;;;;;;13.75;10.25;;;;;;;;3567175;39;113963;-78
2021/04/25 05:28:54;;;;;;;;;12.25;10.50;;;;;;;;3568092;39;112072;-78
2021/04/25 05:31:21;;;;;;;;;10.00;9.00;;;;;;;;3569330;39;113418;-76
2021/04/25 05:33:47;;;;;;;;;11.00;9.67;;;;;;;;3566123;39;113940;-76
2021/04/25 05:36:13;;;;;;;;;11.00;8.75;;;;;;;;3567974;39;112327;-76
2021/04/25 05:38:39;;;;;;;;;11.00;11.00;;;;;;;;3570191;39;113675;-75
2021/04/25 05:41:05;;;;;;;;;13.33;13.33;;;;;;;;3567829;39;111919;-75
2021/04/25 05:43:31;;;;;;;;;11.50;10.25;;;;;;;;3567580;39;114074;-76
2021/04/25 05:45:57;;;;;;;;;11.25;10.00;;;;;;;;3567371;39;114402;-78
2021/04/25 05:48:24;;;;;;;;;12.00;10.33;;;;;;;;3566978;39;112920;-76
2021/04/25 05:50:50;;;;;;;;;11.50;9.00;;;;;;;;3567486;39;113683;-74
2021/04/25 05:53:16;;;;;;;;;11.00;11.00;;;;;;;;3566123;39;113971;-76
2021/04/25 05:55:43;;;;;;;;;10.33;10.33;;;;;;;;3566174;39;112347;-77
2021/04/25 05:58:09;;;;;;;;;12.00;11.00;;;;;;;;3567015;39;113181;-74
2021/04/25 06:00:38;;;;;;;;;12.00;9.33;;;;;;;;3567862;39;114059;-73
2021/04/25 06:03:04;;;;;;;;;12.00;12.00;;;;;;;;3565148;39;113242;-77
2021/04/25 06:05:31;;;;;;;;;14.00;12.50;;;;;;;;3565344;39;113875;-76
2021/04/25 06:07:57;;;;;;;;;12.33;11.00;;;;;;;;3562105;39;112022;-76
2021/04/25 06:10:23;;;;;;;;;11.67;11.00;;;;;;;;3559238;39;112813;-75
2021/04/25 06:12:51;;;;;;;;;11.67;11.67;;;;;;;;3559659;39;113802;-75
2021/04/25 06:15:17;;;;;;;;;11.00;11.00;;;;;;;;3559532;39;111996;-75
2021/04/25 06:17:44;;;;;;;;;13.00;12.00;;;;;;;;3559708;39;113377;-74
2021/04/25 06:20:11;;;;;;;;;16.00;13.67;;;;;;;;3559543;39;113907;-74
2021/04/25 06:22:38;;;;;;;;;13.33;12.00;;;;;;;;3561894;39;111776;-73
2021/04/25 06:25:05;;;;;;;;;18.00;18.00;;;;;;;;3559849;39;114142;-75
2021/04/25 06:27:31;;;;;;;;;16.25;14.00;;;;;;;;3558804;39;111997;-74
2021/04/25 06:29:57;;;;;;;;;13.67;13.00;;;;;;;;3558654;39;113542;-73
2021/04/25 06:32:23;;;;;;;;;12.67;11.00;;;;;;;;3558220;39;113804;-75
2021/04/25 06:34:49;;;;;;;;;12.00;12.00;;;;;;;;3559704;39;111750;-75
2021/04/25 06:37:15;;;;;;;;;18.33;14.00;;;;;;;;3559441;39;113559;-74
2021/04/25 06:39:42;;;;;;;;;14.33;12.00;;;;;;;;3558289;39;113843;-73
2021/04/25 06:42:08;;;;;;;;;15.33;13.00;;;;;;;;3561409;39;113121;-73
2021/04/25 06:44:34;;;;;;;;;13.00;13.00;;;;;;;;3562413;39;113457;-75
2021/04/25 06:47:01;;;;;;;;;17.00;13.33;;;;;;;;3557810;39;111978;-72
2021/04/25 06:49:28;;;;;;;;;17.75;12.00;;;;;;;;3560556;39;113176;-73
2021/04/25 06:51:55;;;;;;;;;15.00;14.00;;;;;;;;3556811;39;114193;-74
2021/04/25 06:54:21;;;;;;;;;16.75;10.75;;;;;;;;3559046;39;113501;-73
2021/04/25 06:56:48;;;;;;;;;18.00;13.00;;;;;;;;3556756;39;114368;-73
2021/04/25 06:59:14;;;;;;;;;14.75;12.25;;;;;;;;3557706;39;113744;-77
2021/04/25 07:01:40;;;;;;;;;13.00;11.50;;;;;;;;3560492;39;112324;-73
2021/04/25 07:04:06;;;;;;;;;11.00;11.00;;;;;;;;3560318;39;113214;-72
2021/04/25 07:06:32;;;;;;;;;15.50;13.00;;;;;;;;3559391;39;112283;-76
2021/04/25 07:08:58;;;;;;;;;13.50;13.50;;;;;;;;3557434;39;114269;-76
2021/04/25 07:11:24;;;;;;;;;11.50;11.50;;;;;;;;3559860;39;113815;-76
2021/04/25 07:13:51;;;;;;;;;12.00;10.00;;;;;;;;3578166;22;113757;-75
2021/04/25 07:16:17;;;;;;;;;14.00;12.50;;;;;;;;3537696;39;113958;-73
2021/04/25 07:18:43;;;;;;;;;14.25;13.00;;;;;;;;3539767;39;114038;-73
2021/04/25 07:21:09;;;;;;;;;14.25;11.75;;;;;;;;3538686;39;112045;-72
2021/04/25 07:23:37;;;;;;;;;14.75;11.00;;;;;;;;3534383;39;112634;-73
2021/04/25 07:26:03;;;;;;;;;14.00;11.50;;;;;;;;3541325;39;113852;-71
2021/04/25 07:28:29;;;;;;;;;15.00;12.75;;;;;;;;3538006;39;113374;-71
2021/04/25 07:30:56;;;;;;;;;14.25;11.50;;;;;;;;3538215;39;114242;-72
2021/04/25 07:33:22;;;;;;;;;15.50;12.00;;;;;;;;3537793;39;111851;-70
2021/04/25 07:35:48;;;;;;;;;14.50;12.25;;;;;;;;3538374;39;113357;-70
2021/04/25 07:38:14;;;;;;;;;12.00;11.00;;;;;;;;3536603;39;114385;-71
2021/04/25 07:40:41;;;;;;;;;12.00;11.25;;;;;;;;3537097;39;111979;-71
2021/04/25 07:43:08;;;;;;;;;10.25;10.25;;;;;;;;3538240;39;113267;-72
2021/04/25 07:45:34;;;;;;;;;10.00;8.75;;;;;;;;3536294;39;113894;-70
2021/04/25 07:48:01;;;;;;;;;11.50;10.75;;;;;;;;3539325;39;112000;-71
2021/04/25 07:50:27;;;;;;;;;8.00;7.00;;;;;;;;3537827;39;114158;-71
2021/04/25 07:52:53;;;;;;;;;11.50;8.25;;;;;;;;3537254;39;112090;-70
2021/04/25 07:55:20;;;;;;;;;8.50;8.50;;;;;;;;3538509;39;113447;-69
2021/04/25 07:57:46;;;;;;;;;9.00;9.00;;;;;;;;3537722;39;113975;-69
2021/04/25 08:00:13;;;;;;;;;10.00;10.00;;;;;;;;3537207;39;112383;-69
2021/04/25 08:02:39;;;;;;;;;9.75;8.75;;;;;;;;3537851;39;114026;-73
2021/04/25 08:05:07;;;;;;;;;10.25;10.25;;;;;;;;3537483;39;114105;-70
2021/04/25 08:07:33;;;;;;;;;10.75;8.50;;;;;;;;3539195;39;111959;-69
2021/04/25 08:09:59;;;;;;;;;5.75;5.75;;;;;;;;3543401;39;113456;-70
2021/04/25 08:12:26;;;;;;;;;10.00;10.00;;;;;;;;3538010;39;113353;-70
2021/04/25 08:14:52;;;;;;;;;10.00;10.00;;;;;;;;3540439;39;112964;-67
2021/04/25 08:17:18;;;;;;;;;11.25;10.50;;;;;;;;3540311;39;113915;-69
2021/04/25 08:19:44;;;;;;;;;9.25;9.00;;;;;;;;3541370;39;112796;-73
2021/04/25 08:22:11;;;;;;;;;10.50;10.25;;;;;;;;3540901;39;113633;-70
2021/04/25 08:24:37;;;;;;;;;9.00;9.00;;;;;;;;3539534;39;115584;-69
2021/04/25 08:27:03;;;;;;;;;15.00;14.50;;;;;;;;3538918;39;111878;-69
2021/04/25 08:29:29;;;;;;;;;12.00;11.50;;;;;;;;3538965;39;113272;-74
2021/04/25 08:31:55;;;;;;;;;10.00;10.00;;;;;;;;3539520;39;113702;-69
2021/04/25 08:34:21;;;;;;;;;9.00;9.00;;;;;;;;3538604;39;113902;-70
2021/04/25 08:36:47;;;;;;;;;10.00;9.00;;;;;;;;3537434;39;113806;-71
2021/04/25 08:39:14;;;;;;;;;6.00;5.00;;;;;;;;3538024;39;111817;-71
2021/04/25 08:41:40;;;;;;;;;10.00;10.00;;;;;;;;3538411;39;113755;-71
2021/04/25 08:44:07;;;;;;;;;8.33;8.33;;;;;;;;3534973;39;113897;-67
2021/04/25 08:46:33;;;;;;;;;11.00;9.67;;;;;;;;3538339;39;112020;-69
2021/04/25 08:49:00;;;;;;;;;10.00;10.00;;;;;;;;3539538;39;113203;-75
2021/04/25 08:51:27;;;;;;;;;38.50;33.75;;;;;;;;3539181;39;113972;-70
2021/04/25 08:53:53;;;;;;;;;46.00;37.75;;;;;;;;3539863;39;111960;-70
2021/04/25 08:56:20;;;;;;;;;12.00;12.00;;;;;;;;3535835;39;114000;-70
2021/04/25 08:58:48;;;;;;;;;20.67;20.00;;;;;;;;3538075;39;113381;-71
2021/04/25 09:01:14;;;;;;;;;19.00;18.00;;;;;;;;3536443;39;112402;-71
2021/04/25 09:03:40;;;;;;;;;14.33;14.33;;;;;;;;3537237;39;113984;-71
2021/04/25 09:06:10;;;;;;;;;12.33;11.00;;;;;;;;3534737;39;113168;-70
2021/04/25 09:08:43;;;;;;;;;15.00;15.00;;;;;;;;3537518;39;113162;-69
2021/04/25 09:11:09;;;;;;;;;10.33;10.00;;;;;;;;3537879;39;114418;-70
2021/04/25 09:13:35;;;;;;;;;11.33;10.00;;;;;;;;3540304;39;111936;-70
2021/04/25 09:16:10;;;;;;;;;11.00;9.00;;;;;;;;3538124;39;114382;-71
2021/04/25 09:18:36;;;;;;;;;10.00;9.67;;;;;;;;3535609;39;113178;-71
2021/04/25 09:21:05;;;;;;;;;13.00;11.67;;;;;;;;3538732;39;113531;-71
2021/04/25 09:23:32;;;;;;;;;10.00;10.00;;;;;;;;3536571;39;113130;-71
2021/04/25 09:25:59;;;;;;;;;10.00;9.67;;;;;;;;3538747;39;112654;-70
2021/04/25 09:28:26;;;;;;;;;10.00;10.00;;;;;;;;3535621;39;114095;-70
2021/04/25 09:30:57;;;;;;;;;9.67;9.00;;;;;;;;3538149;39;114456;-69
2021/04/25 09:33:26;;;;;;;;;9.67;9.00;;;;;;;;3537360;39;111967;-70
2021/04/25 09:35:52;;;;;;;;;68.00;59.00;;;;;;;;3540329;39;113285;-70
2021/04/25 09:38:18;;;;;;;;;18.00;16.33;;;;;;;;3537431;39;112810;-71
2021/04/25 09:40:45;;;;;;;;;11.00;11.00;;;;;;;;3535750;39;112883;-71
2021/04/25 09:43:11;;;;;;;;;51.75;41.00;;;;;;;;3538386;39;114284;-71
2021/04/25 09:45:39;;;;;;;;;10.67;10.67;;;;;;;;3538853;39;112236;-70
2021/04/25 09:48:23;;;;;;;;;11.00;10.67;;;;;;;;3536263;39;112720;-70
2021/04/25 09:51:06;;;;;;;;;9.67;9.67;;;;;;;;3535681;39;113075;-71
2021/04/25 09:53:32;;;;;;;;;11.67;11.67;;;;;;;;3538606;39;111827;-71
2021/04/25 09:55:58;;;;;;;;;8.67;8.67;;;;;;;;3540012;39;113385;-70
2021/04/25 09:58:26;;;;;;;;;11.00;11.00;;;;;;;;3540771;39;113993;-69
2021/04/25 10:00:52;;;;;;;;;10.00;10.00;;;;;;;;3539824;39;114405;-70
2021/04/25 10:03:19;;;;;;;;;9.33;9.33;;;;;;;;3538345;39;113798;-70
2021/04/25 10:05:57;;;;;;;;;17.33;14.00;;;;;;;;3539294;39;112171;-71
2021/04/25 10:08:28;;;;;;;;;14.67;14.00;;;;;;;;3538520;39;113079;-71
2021/04/25 10:10:54;;;;;;;;;13.00;13.00;;;;;;;;3539468;39;114066;-71
2021/04/25 10:13:20;;;;;;;;;45.25;37.50;;;;;;;;3536802;39;113460;-70
2021/04/25 10:15:46;;;;;;;;;12.00;11.00;;;;;;;;3539959;39;113549;-70
2021/04/25 10:18:12;;;;;;;;;24.50;23.75;;;;;;;;3539463;39;113785;-70
2021/04/25 10:20:38;;;;;;;;;29.75;28.50;;;;;;;;3542746;39;111991;-71
2021/04/25 10:23:06;;;;;;;;;14.25;14.00;;;;;;;;3536907;39;113408;-72
2021/04/25 10:25:35;;;;;;;;;29.75;27.00;;;;;;;;3536038;39;111827;-71
2021/04/25 10:28:02;;;;;;;;;18.00;18.00;;;;;;;;3540355;39;113439;-72
2021/04/25 10:30:32;;;;;;;;;11.75;11.75;;;;;;;;3538293;39;116109;-71
2021/04/25 10:32:59;;;;;;;;;10.00;10.00;;;;;;;;3533567;39;111862;-72
2021/04/25 10:35:28;;;;;;;;;12.50;10.25;;;;;;;;3538746;39;113643;-72
2021/04/25 10:37:54;;;;;;;;;9.00;8.00;;;;;;;;3539344;39;114273;-71
2021/04/25 10:40:26;;;;;;;;;7.50;7.50;;;;;;;;3538676;39;112171;-71
2021/04/25 10:42:55;;;;;;;;;9.00;9.00;;;;;;;;3541936;39;113779;-71
2021/04/25 10:45:30;;;;;;;;;11.00;10.75;;;;;;;;3538669;39;112262;-71
2021/04/25 10:48:15;;;;;;;;;9.50;9.50;;;;;;;;3538257;39;113244;-71
2021/04/25 10:50:42;;;;;;;;;12.75;12.75;;;;;;;;3534793;39;113193;-71
2021/04/25 10:53:18;;;;;;;;;13.25;11.25;;;;;;;;3537199;39;112075;-71
2021/04/25 10:55:45;;;;;;;;;11.00;11.00;;;;;;;;3538888;39;113010;-70
2021/04/25 10:58:22;;;;;;;;;14.25;13.50;;;;;;;;3535274;39;113178;-70
2021/04/25 11:00:49;;;;;;;;;14.75;13.50;;;;;;;;3534780;39;113262;-71
2021/04/25 11:03:38;;;;;;;;;13.50;12.00;;;;;;;;3535490;39;116124;-71
2021/04/25 11:06:05;;;;;;;;;17.25;13.25;;;;;;;;3536663;39;113403;-74
2021/04/25 11:08:41;;;;;;;;;13.25;13.25;;;;;;;;3539416;39;112903;-71
2021/04/25 11:11:09;;;;;;;;;13.00;13.00;;;;;;;;3535887;39;112969;-71
2021/04/25 11:13:40;;;;;;;;;13.25;13.25;;;;;;;;3538622;39;112007;-71
2021/04/25 11:16:07;;;;;;;;;15.25;14.00;;;;;;;;3537999;39;113457;-71
2021/04/25 11:18:47;;;;;;;;;17.00;13.75;;;;;;;;3538536;39;113840;-70
2021/04/25 11:21:53;;;;;;;;;11.75;11.75;;;;;;;;3537925;39;111939;-69
2021/04/25 11:24:29;;;;;;;;;9.00;9.00;;;;;;;;3537357;39;113383;-69
2021/04/25 11:26:56;;;;;;;;;3.50;2.00;;;;;;;;3537328;39;112855;-71
2021/04/25 11:29:43;;;;;;;;;13.25;10.75;;;;;;;;3537427;39;113278;-71
2021/04/25 11:32:22;;;;;;;;;11.00;10.00;;;;;;;;3538963;39;113849;-71
2021/04/25 11:34:55;;;;;;;;;12.00;12.00;;;;;;;;3536725;39;112609;-74
2021/04/25 11:37:22;;;;;;;;;9.50;9.25;;;;;;;;3539244;39;113324;-73
2021/04/25 11:39:51;;;;;;;;;9.50;9.50;;;;;;;;3538726;39;114146;-74
2021/04/25 11:42:23;;;;;;;;;10.00;9.50;;;;;;;;3537873;39;112101;-73
2021/04/25 11:44:49;;;;;;;;;12.00;12.00;;;;;;;;3537843;39;113086;-72
2021/04/25 11:47:17;;;;;;;;;9.00;9.00;;;;;;;;3539530;39;113957;-71
2021/04/25 11:49:45;;;;;;;;;12.75;9.00;;;;;;;;3541749;39;113166;-71
2021/04/25 11:52:12;;;;;;;;;8.00;8.00;;;;;;;;3537920;39;114622;-71
2021/04/25 11:54:39;;;;;;;;;8.00;6.75;;;;;;;;3538346;39;112742;-71
2021/04/25 11:57:08;;;;;;;;;10.50;9.50;;;;;;;;3538330;39;113409;-72
2021/04/25 11:59:34;;;;;;;;;9.00;9.00;;;;;;;;3532445;39;112930;-73
2021/04/25 12:02:07;;;;;;;;;8.25;7.50;;;;;;;;3539059;39;111752;-73
2021/04/25 12:04:44;;;;;;;;;8.75;8.75;;;;;;;;3537365;39;113264;-73
2021/04/25 12:07:10;;;;;;;;;10.25;9.00;;;;;;;;3538087;39;113612;-74
2021/04/25 12:09:36;;;;;;;;;11.75;11.00;;;;;;;;3537944;39;112221;-74
2021/04/25 12:12:03;;;;;;;;;11.50;10.00;;;;;;;;3540558;39;113541;-73
2021/04/25 12:14:29;;;;;;;;;9.25;8.00;;;;;;;;3537746;39;112166;-73
2021/04/25 12:17:09;;;;;;;;;8.00;8.00;;;;;;;;3535378;39;113257;-73
2021/04/25 12:19:35;;;;;;;;;7.75;7.25;;;;;;;;3537539;39;113886;-73
2021/04/25 12:22:02;;;;;;;;;10.25;9.00;;;;;;;;3538756;39;111824;-72
2021/04/25 12:24:28;;;;;;;;;9.00;8.00;;;;;;;;3537334;39;113243;-73
2021/04/25 12:26:54;;;;;;;;;6.50;6.00;;;;;;;;3539733;39;114421;-74
2021/04/25 12:29:32;;;;;;;;;9.50;9.00;;;;;;;;3539337;39;111927;-74
2021/04/25 12:31:58;;;;;;;;;8.50;8.00;;;;;;;;3538511;39;113453;-74
2021/04/25 12:34:28;;;;;;;;;8.75;8.75;;;;;;;;3539891;39;113869;-72
2021/04/25 12:36:54;;;;;;;;;6.75;6.75;;;;;;;;3536729;39;112626;-72
2021/04/25 12:39:21;;;;;;;;;9.25;6.75;;;;;;;;3535489;39;113901;-73
2021/04/25 12:41:48;;;;;;;;;10.00;7.25;;;;;;;;3536104;39;112494;-72
2021/04/25 12:44:16;;;;;;;;;8.25;7.25;;;;;;;;3536865;39;113257;-73
2021/04/25 12:46:52;;;;;;;;;9.00;9.00;;;;;;;;3536613;39;113972;-73
2021/04/25 12:49:18;;;;;;;;;6.75;6.75;;;;;;;;3541065;39;111923;-73
2021/04/25 12:51:48;;;;;;;;;6.00;6.00;;;;;;;;3540495;39;113567;-74
2021/04/25 12:54:15;;;;;;;;;9.00;6.00;;;;;;;;3539073;39;114150;-70
2021/04/25 12:56:51;;;;;;;;;39.25;35.50;;;;;;;;3537093;39;112431;-73
2021/04/25 12:59:18;;;;;;;;;32.25;31.25;;;;;;;;3539325;39;114342;-69
2021/04/25 13:01:45;;;;;;;;;22.25;22.00;;;;;;;;3538261;39;112037;-70
2021/04/25 13:04:30;;;;;;;;;12.25;11.75;;;;;;;;3540326;39;113548;-71
2021/04/25 13:07:14;;;;;;;;;13.50;12.25;;;;;;;;3537717;39;112804;-69
2021/04/25 13:09:41;;;;;;;;;9.50;8.50;;;;;;;;3535462;39;113521;-69
2021/04/25 13:12:17;;;;;;;;;1.75;1.00;;;;;;;;3539238;39;113355;-70
2021/04/25 13:14:54;;;;;;;;;7.25;5.25;;;;;;;;3537981;39;113848;-69
2021/04/25 13:17:23;;;;;;;;;10.75;9.75;;;;;;;;3537932;39;111990;-71
2021/04/25 13:19:49;;;;;;;;;10.00;8.50;;;;;;;;3542196;39;113432;-68
2021/04/25 13:22:15;;;;;;;;;11.50;10.75;;;;;;;;3537530;39;111973;-70
2021/04/25 13:24:41;;;;;;;;;5.50;5.50;;;;;;;;3538260;39;114103;-69
2021/04/25 13:27:08;;;;;;;;;11.00;9.00;;;;;;;;3533247;39;113564;-72
2021/04/25 13:29:34;;;;;;;;;7.00;7.00;;;;;;;;3538480;39;112682;-70
2021/04/25 13:32:00;;;;;;;;;11.00;10.00;;;;;;;;3539522;39;113876;-70
2021/04/25 13:34:27;;;;;;;;;8.25;8.25;;;;;;;;3537459;39;113828;-70
2021/04/25 13:36:53;;;;;;;;;8.00;7.00;;;;;;;;3534352;39;111974;-72
2021/04/25 13:39:19;;;;;;;;;7.50;7.50;;;;;;;;3540556;39;113556;-70
2021/04/25 13:41:45;;;;;;;;;6.00;5.00;;;;;;;;3536681;39;112203;-72
2021/04/25 13:44:11;;;;;;;;;8.75;7.25;;;;;;;;3540944;39;113232;-68
2021/04/25 13:46:39;;;;;;;;;9.50;8.00;;;;;;;;3540093;39;114072;-68
2021/04/25 13:49:06;;;;;;;;;6.25;5.75;;;;;;;;3537957;39;112056;-68
2021/04/25 13:51:32;;;;;;;;;5.75;5.25;;;;;;;;3540446;39;113403;-70
2021/04/25 13:53:58;;;;;;;;;6.50;5.00;;;;;;;;3539485;39;114600;-68
2021/04/25 13:56:25;;;;;;;;;8.50;8.50;;;;;;;;3538959;39;112368;-68
2021/04/25 13:58:54;;;;;;;;;8.00;7.25;;;;;;;;3539933;39;113172;-68
2021/04/25 14:01:20;;;;;;;;;6.00;6.00;;;;;;;;3542521;39;113693;-73
2021/04/25 14:03:47;;;;;;;;;8.00;8.00;;;;;;;;3539826;39;113335;-74
2021/04/25 14:06:13;;;;;;;;;8.50;8.00;;;;;;;;3540327;39;114703;-75
2021/04/25 14:08:39;;;;;;;;;6.50;6.50;;;;;;;;3540658;39;112362;-74
2021/04/25 14:11:05;;;;;;;;;8.75;7.00;;;;;;;;3540666;39;113492;-72
2021/04/25 14:13:32;;;;;;;;;8.00;8.00;;;;;;;;3540439;39;113989;-71
2021/04/25 14:15:58;;;;;;;;;8.25;7.75;;;;;;;;3537974;39;112243;-71
2021/04/25 14:18:24;;;;;;;;;5.50;4.75;;;;;;;;3538273;39;113501;-72
2021/04/25 14:20:51;;;;;;;;;4.00;4.00;;;;;;;;3539425;39;114210;-71
2021/04/25 14:23:17;;;;;;;;;6.00;6.00;;;;;;;;3541594;39;111998;-71